createdAt,value
2018-04-23T00:01:05.634Z,90.20
2018-04-23T00:03:31.860Z,90.20
2018-04-23T00:05:58.086Z,90.30
2018-04-23T00:08:24.306Z,90.40
2018-04-23T00:10:51.392Z,90.30
2018-04-23T00:18:15.259Z,90.20
2018-04-23T00:20:41.470Z,90.40
2018-04-23T00:23:07.723Z,90.50
2018-04-23T00:25:34.007Z,90.50
2018-04-23T00:28:00.247Z,90.60
2018-04-23T00:30:26.472Z,90.90
2018-04-23T00:32:52.717Z,91.10
2018-04-23T00:35:18.927Z,91.10
2018-04-23T00:37:45.158Z,91.50
2018-04-23T00:40:11.398Z,91.40
2018-04-23T00:42:37.617Z,91.40
2018-04-23T00:45:04.174Z,91.50
2018-04-23T00:47:30.422Z,91.50
2018-04-23T00:49:56.656Z,91.50
2018-04-23T00:52:22.886Z,91.60
2018-04-23T00:54:49.862Z,91.60
2018-04-23T00:57:16.094Z,91.60
2018-04-23T00:59:43.091Z,91.70
2018-04-23T01:02:09.345Z,91.70
2018-04-23T01:04:35.557Z,91.70
2018-04-23T01:07:01.779Z,91.80
2018-04-23T01:09:28.041Z,91.80
2018-04-23T01:11:54.305Z,91.80
2018-04-23T01:14:20.545Z,91.80
2018-04-23T01:16:46.819Z,91.90
2018-04-23T01:19:13.804Z,91.80
2018-04-23T01:21:40.031Z,91.70
2018-04-23T01:24:07.005Z,91.70
2018-04-23T01:26:33.223Z,91.70
2018-04-23T01:29:00.211Z,91.70
2018-04-23T01:31:26.424Z,91.70
2018-04-23T01:33:53.411Z,91.80
2018-04-23T01:36:19.603Z,91.70
2018-04-23T01:38:45.830Z,91.80
2018-04-23T01:41:12.047Z,92.00
2018-04-23T01:43:38.301Z,91.80
2018-04-23T01:46:04.867Z,91.80
2018-04-23T01:48:31.092Z,91.80
2018-04-23T01:50:57.323Z,91.80
2018-04-23T01:53:23.557Z,91.70
2018-04-23T01:55:49.776Z,91.60
2018-04-23T01:58:15.990Z,91.50
2018-04-23T02:00:42.999Z,91.30
2018-04-23T02:03:09.204Z,91.20
2018-04-23T02:05:35.441Z,91.20
2018-04-23T02:08:01.692Z,91.10
2018-04-23T02:10:27.914Z,91.10
2018-04-23T02:12:54.138Z,91.10
2018-04-23T02:15:21.116Z,91.20
2018-04-23T02:17:47.339Z,91.20
2018-04-23T02:20:14.302Z,93.60
2018-04-23T02:22:41.280Z,93.10
2018-04-23T02:25:07.508Z,93.00
2018-04-23T02:27:34.468Z,92.60
2018-04-23T02:30:00.723Z,92.60
2018-04-23T02:32:26.948Z,92.50
2018-04-23T02:34:53.216Z,92.20
2018-04-23T02:37:19.439Z,91.90
2018-04-23T02:39:45.662Z,91.60
2018-04-23T02:42:12.674Z,91.00
2018-04-23T02:44:38.898Z,91.00
2018-04-23T02:47:05.273Z,91.20
2018-04-23T02:49:31.522Z,91.10
2018-04-23T02:51:57.742Z,91.20
2018-04-23T02:54:23.987Z,91.10
2018-04-23T02:56:50.232Z,90.90
2018-04-23T02:59:16.452Z,90.90
2018-04-23T03:01:42.689Z,90.70
2018-04-23T03:04:08.942Z,90.60
2018-04-23T03:06:35.893Z,91.40
2018-04-23T03:09:02.186Z,91.40
2018-04-23T03:11:29.181Z,91.20
2018-04-23T03:13:55.436Z,91.20
2018-04-23T03:16:22.437Z,91.70
2018-04-23T03:18:49.436Z,92.00
2018-04-23T03:21:15.650Z,92.00
2018-04-23T03:23:41.916Z,92.30
2018-04-23T03:26:08.183Z,92.60
2018-04-23T03:28:34.377Z,92.80
2018-04-23T03:31:01.354Z,93.30
2018-04-23T03:33:27.606Z,93.20
2018-04-23T03:35:54.574Z,93.20
2018-04-23T03:38:20.837Z,93.20
2018-04-23T03:40:47.209Z,93.00
2018-04-23T03:43:14.176Z,92.60
2018-04-23T03:45:40.403Z,92.60
2018-04-23T03:48:07.749Z,92.50
2018-04-23T03:50:33.979Z,92.50
2018-04-23T03:53:00.207Z,92.70
2018-04-23T03:55:26.443Z,92.90
2018-04-23T03:57:52.671Z,93.10
2018-04-23T04:00:18.930Z,93.00
2018-04-23T04:02:45.160Z,93.00
2018-04-23T04:05:11.371Z,93.00
2018-04-23T04:07:37.615Z,92.90
2018-04-23T04:10:03.864Z,92.80
2018-04-23T04:12:42.371Z,92.70
2018-04-23T04:15:20.902Z,92.60
2018-04-23T04:20:52.843Z,92.30
2018-04-23T04:23:19.061Z,92.30
2018-04-23T04:25:45.251Z,92.20
2018-04-23T04:28:11.497Z,92.10
2018-04-23T04:30:37.724Z,92.00
2018-04-23T04:33:03.946Z,92.00
2018-04-23T04:35:30.212Z,92.00
2018-04-23T04:37:56.405Z,91.90
2018-04-23T04:40:22.638Z,91.90
2018-04-23T04:42:49.251Z,91.90
2018-04-23T04:45:15.460Z,91.80
2018-04-23T04:47:41.682Z,91.90
2018-04-23T04:50:08.380Z,91.90
2018-04-23T04:52:34.618Z,91.80
2018-04-23T04:55:00.858Z,91.80
2018-04-23T04:57:27.086Z,91.90
2018-04-23T05:02:18.390Z,91.70
2018-04-23T05:04:44.622Z,91.70
2018-04-23T05:07:11.580Z,91.60
2018-04-23T05:09:38.524Z,91.70
2018-04-23T05:12:05.509Z,91.80
2018-04-23T05:14:31.732Z,91.70
2018-04-23T05:16:57.964Z,91.70
2018-04-23T05:19:24.964Z,91.70
2018-04-23T05:21:51.172Z,91.60
2018-04-23T05:24:17.521Z,91.60
2018-04-23T05:26:43.865Z,91.90
2018-04-23T05:29:10.118Z,92.10
2018-04-23T05:31:36.392Z,92.00
2018-04-23T05:34:02.630Z,92.20
2018-04-23T05:36:28.878Z,92.10
2018-04-23T05:38:55.091Z,91.70
2018-04-23T05:41:21.311Z,90.80
2018-04-23T05:43:47.524Z,90.40
2018-04-23T05:46:14.488Z,90.70
2018-04-23T05:48:40.746Z,90.70
2018-04-23T05:51:07.104Z,91.20
2018-04-23T05:53:33.341Z,90.80
2018-04-23T05:55:59.626Z,89.00
2018-04-23T05:58:25.842Z,87.40
2018-04-23T06:00:52.061Z,85.80
2018-04-23T06:03:18.303Z,86.90
2018-04-23T06:05:44.550Z,85.30
2018-04-23T06:08:10.796Z,83.80
2018-04-23T06:10:37.043Z,82.90
2018-04-23T06:13:03.266Z,83.70
2018-04-23T06:15:29.487Z,81.90
2018-04-23T06:17:55.768Z,82.00
2018-04-23T06:20:22.008Z,81.00
2018-04-23T06:22:48.297Z,79.90
2018-04-23T06:25:15.291Z,78.00
2018-04-23T06:27:41.550Z,77.90
2018-04-23T06:30:07.811Z,77.80
2018-04-23T06:32:34.596Z,76.60
2018-04-23T06:35:00.849Z,75.50
2018-04-23T06:37:27.090Z,74.00
2018-04-23T06:39:54.045Z,70.80
2018-04-23T06:42:20.323Z,70.80
2018-04-23T06:44:46.539Z,70.70
2018-04-23T06:47:12.768Z,70.40
2018-04-23T06:49:39.732Z,71.00
2018-04-23T06:52:06.136Z,70.90
2018-04-23T06:54:32.412Z,70.50
2018-04-23T06:56:58.649Z,70.20
2018-04-23T06:59:25.652Z,67.70
2018-04-23T07:01:51.918Z,67.60
2018-04-23T07:04:18.149Z,66.80
2018-04-23T07:06:44.349Z,67.20
2018-04-23T07:09:10.724Z,66.50
2018-04-23T07:11:36.942Z,65.50
2018-04-23T07:14:03.142Z,64.60
2018-04-23T07:16:30.131Z,63.20
2018-04-23T07:18:56.351Z,63.10
2018-04-23T07:21:22.571Z,62.70
2018-04-23T07:23:48.844Z,61.90
2018-04-23T07:26:15.072Z,60.60
2018-04-23T07:28:41.294Z,59.30
2018-04-23T07:31:07.526Z,58.70
2018-04-23T07:33:33.740Z,58.60
2018-04-23T07:35:59.960Z,58.20
2018-04-23T07:38:26.210Z,57.70
2018-04-23T07:40:52.452Z,58.00
2018-04-23T07:43:18.692Z,58.80
2018-04-23T07:45:45.695Z,57.30
2018-04-23T07:48:12.702Z,56.90
2018-04-23T07:50:38.939Z,57.50
2018-04-23T07:53:05.315Z,56.60
2018-04-23T07:55:31.542Z,55.50
2018-04-23T07:57:57.773Z,54.90
2018-04-23T08:00:24.135Z,56.20
2018-04-23T08:02:51.123Z,56.50
2018-04-23T08:05:18.105Z,56.30
2018-04-23T08:07:44.367Z,56.30
2018-04-23T08:10:10.623Z,56.10
2018-04-23T08:12:36.834Z,55.80
2018-04-23T08:15:03.108Z,54.30
2018-04-23T08:17:29.318Z,54.20
2018-04-23T08:19:55.530Z,54.10
2018-04-23T08:22:22.498Z,54.10
2018-04-23T08:24:48.732Z,54.10
2018-04-23T08:27:15.682Z,52.10
2018-04-23T08:29:41.927Z,52.10
2018-04-23T08:32:08.895Z,51.30
2018-04-23T08:34:35.135Z,51.30
2018-04-23T08:37:02.129Z,51.70
2018-04-23T08:39:28.382Z,51.60
2018-04-23T08:41:54.626Z,51.30
2018-04-23T08:44:20.862Z,50.40
2018-04-23T08:46:47.087Z,50.00
2018-04-23T08:49:13.326Z,49.90
2018-04-23T08:51:39.591Z,49.20
2018-04-23T08:54:05.985Z,49.30
2018-04-23T08:56:32.216Z,48.80
2018-04-23T08:58:58.453Z,48.60
2018-04-23T09:01:24.718Z,48.90
2018-04-23T09:03:51.635Z,48.50
2018-04-23T09:06:17.895Z,47.90
2018-04-23T09:08:44.121Z,47.60
2018-04-23T09:11:11.083Z,46.90
2018-04-23T09:13:38.068Z,46.00
2018-04-23T09:16:04.334Z,46.00
2018-04-23T09:18:30.559Z,44.80
2018-04-23T09:20:56.798Z,43.20
2018-04-23T09:23:23.040Z,43.10
2018-04-23T09:25:49.314Z,43.10
2018-04-23T09:28:15.614Z,42.60
2018-04-23T09:30:41.920Z,42.40
2018-04-23T09:33:08.934Z,41.50
2018-04-23T09:35:35.266Z,41.50
2018-04-23T09:38:01.550Z,41.40
2018-04-23T09:40:28.513Z,41.30
2018-04-23T09:42:54.815Z,41.30
2018-04-23T09:45:21.149Z,41.20
2018-04-23T09:47:47.401Z,42.10
2018-04-23T09:50:13.656Z,41.60
2018-04-23T09:52:39.888Z,40.40
2018-04-23T09:55:06.256Z,40.10
2018-04-23T09:57:32.480Z,40.70
2018-04-23T09:59:58.706Z,40.70
2018-04-23T10:02:24.958Z,39.30
2018-04-23T10:04:51.199Z,38.90
2018-04-23T10:07:17.423Z,39.00
2018-04-23T10:09:43.711Z,40.10
2018-04-23T10:12:09.942Z,39.40
2018-04-23T10:14:36.181Z,38.70
2018-04-23T10:17:03.187Z,37.90
2018-04-23T10:19:29.409Z,37.80
2018-04-23T10:21:56.374Z,39.30
2018-04-23T10:24:23.355Z,40.00
2018-04-23T10:26:49.567Z,39.90
2018-04-23T10:29:16.511Z,38.30
2018-04-23T10:31:42.742Z,38.20
2018-04-23T10:34:08.946Z,39.10
2018-04-23T10:36:35.159Z,39.50
2018-04-23T10:39:01.399Z,39.70
2018-04-23T10:41:27.628Z,39.20
2018-04-23T10:43:53.842Z,40.30
2018-04-23T10:46:20.066Z,39.80
2018-04-23T10:48:46.292Z,39.60
2018-04-23T10:51:12.502Z,39.60
2018-04-23T10:53:38.762Z,41.00
2018-04-23T10:56:05.463Z,40.60
2018-04-23T10:58:31.695Z,40.90
2018-04-23T11:00:57.940Z,41.40
2018-04-23T11:03:24.166Z,41.80
2018-04-23T11:05:50.402Z,42.20
2018-04-23T11:08:16.667Z,42.80
2018-04-23T11:10:42.885Z,43.30
2018-04-23T11:13:09.128Z,42.90
2018-04-23T11:15:35.575Z,42.10
2018-04-23T11:18:01.797Z,42.40
2018-04-23T11:20:28.029Z,42.30
2018-04-23T11:22:54.281Z,41.80
2018-04-23T11:25:20.543Z,41.40
2018-04-23T11:27:46.764Z,41.50
2018-04-23T11:30:12.994Z,41.40
2018-04-23T11:32:39.197Z,40.70
2018-04-23T11:35:05.433Z,39.20
2018-04-23T11:37:31.683Z,37.20
2018-04-23T11:39:57.902Z,36.30
2018-04-23T11:42:24.092Z,33.70
2018-04-23T11:44:50.334Z,33.30
2018-04-23T11:47:16.562Z,33.50
2018-04-23T11:49:42.786Z,33.50
2018-04-23T11:52:09.789Z,33.90
2018-04-23T11:54:36.016Z,33.60
2018-04-23T11:57:02.494Z,33.50
2018-04-23T11:59:29.490Z,32.90
2018-04-23T12:01:55.718Z,32.70
2018-04-23T12:04:22.678Z,33.20
2018-04-23T12:06:48.926Z,33.20
2018-04-23T12:09:15.141Z,34.30
2018-04-23T12:11:41.364Z,33.60
2018-04-23T12:14:07.606Z,34.10
2018-04-23T12:16:33.822Z,34.00
2018-04-23T12:19:00.778Z,35.20
2018-04-23T12:21:27.015Z,35.20
2018-04-23T12:23:53.252Z,35.30
2018-04-23T12:26:19.548Z,34.70
2018-04-23T12:28:46.526Z,34.70
2018-04-23T12:31:12.791Z,34.60
2018-04-23T12:33:38.998Z,34.20
2018-04-23T12:36:05.229Z,35.30
2018-04-23T12:38:32.227Z,37.30
2018-04-23T12:40:58.451Z,37.20
2018-04-23T12:43:25.444Z,39.60
2018-04-23T12:45:51.725Z,39.50
2018-04-23T12:48:17.916Z,41.50
2018-04-23T12:50:44.896Z,41.40
2018-04-23T12:53:11.114Z,41.40
2018-04-23T12:55:37.330Z,41.90
2018-04-23T12:58:03.943Z,41.90
2018-04-23T13:00:30.956Z,41.70
2018-04-23T13:02:57.210Z,41.20
2018-04-23T13:05:23.426Z,41.30
2018-04-23T13:07:49.702Z,38.90
2018-04-23T13:10:15.934Z,38.70
2018-04-23T13:12:42.158Z,38.40
2018-04-23T13:15:09.153Z,38.70
2018-04-23T13:17:35.385Z,38.60
2018-04-23T13:20:01.616Z,38.30
2018-04-23T13:22:27.882Z,39.10
2018-04-23T13:24:54.888Z,39.20
2018-04-23T13:27:21.109Z,39.20
2018-04-23T13:29:47.344Z,38.00
2018-04-23T13:32:13.574Z,37.50
2018-04-23T13:34:40.525Z,36.30
2018-04-23T13:37:07.665Z,37.10
2018-04-23T13:39:33.911Z,37.10
2018-04-23T13:42:01.589Z,36.30
2018-04-23T13:44:27.851Z,36.20
2018-04-23T13:46:54.072Z,36.40
2018-04-23T13:49:20.315Z,34.40
2018-04-23T13:51:46.574Z,34.70
2018-04-23T13:54:13.543Z,33.40
2018-04-23T13:56:40.493Z,33.00
2018-04-23T13:59:06.951Z,32.90
2018-04-23T14:01:33.203Z,33.10
2018-04-23T14:03:59.409Z,33.30
2018-04-23T14:06:25.658Z,33.90
2018-04-23T14:08:52.636Z,33.40
2018-04-23T14:11:18.864Z,33.40
2018-04-23T14:13:45.115Z,34.00
2018-04-23T14:16:11.324Z,33.50
2018-04-23T14:18:37.580Z,33.30
2018-04-23T14:21:03.820Z,34.30
2018-04-23T14:23:30.055Z,35.80
2018-04-23T14:25:57.019Z,37.70
2018-04-23T14:28:23.270Z,37.70
2018-04-23T14:30:49.510Z,37.30
2018-04-23T14:33:15.734Z,37.80
2018-04-23T14:35:42.746Z,39.80
2018-04-23T14:38:08.964Z,39.80
2018-04-23T14:40:35.174Z,41.20
2018-04-23T14:43:01.460Z,41.70
2018-04-23T14:45:27.694Z,42.10
2018-04-23T14:47:53.917Z,41.30
2018-04-23T14:50:20.151Z,40.00
2018-04-23T14:52:46.358Z,40.50
2018-04-23T14:55:12.588Z,40.70
2018-04-23T14:57:38.850Z,40.80
2018-04-23T15:00:05.924Z,41.80
2018-04-23T15:02:32.901Z,42.10
2018-04-23T15:04:59.114Z,42.00
2018-04-23T15:07:26.064Z,41.50
2018-04-23T15:09:52.293Z,41.40
2018-04-23T15:12:18.548Z,41.30
2018-04-23T15:14:45.520Z,41.80
2018-04-23T15:17:11.750Z,41.70
2018-04-23T15:19:37.978Z,42.40
2018-04-23T15:22:04.963Z,42.60
2018-04-23T15:24:31.179Z,42.60
2018-04-23T15:26:58.161Z,42.70
2018-04-23T15:29:24.398Z,42.70
2018-04-23T15:31:50.628Z,43.00
2018-04-23T15:34:16.869Z,44.50
2018-04-23T15:36:50.824Z,48.80
2018-04-23T15:39:17.078Z,48.70
2018-04-23T15:41:43.323Z,50.60
2018-04-23T15:44:09.539Z,51.30
2018-04-23T15:46:35.753Z,51.90
2018-04-23T15:49:02.051Z,52.30
2018-04-23T15:51:29.007Z,52.90
2018-04-23T15:53:55.233Z,52.90
2018-04-23T15:56:21.464Z,53.30
2018-04-23T15:58:47.677Z,54.10
2018-04-23T16:01:14.174Z,54.60
2018-04-23T16:03:40.397Z,55.10
2018-04-23T16:06:06.628Z,55.30
2018-04-23T16:08:32.915Z,55.50
2018-04-23T16:10:59.170Z,55.60
2018-04-23T16:13:26.121Z,55.40
2018-04-23T16:15:53.087Z,56.30
2018-04-23T16:18:20.087Z,57.00
2018-04-23T16:20:46.326Z,56.90
2018-04-23T16:23:12.579Z,57.40
2018-04-23T16:25:38.823Z,57.20
2018-04-23T16:28:05.059Z,57.50
2018-04-23T16:30:31.269Z,57.40
2018-04-23T16:32:57.514Z,56.40
2018-04-23T16:35:23.757Z,56.80
2018-04-23T16:37:49.991Z,57.10
2018-04-23T16:40:16.243Z,56.90
2018-04-23T16:42:42.479Z,56.40
2018-04-23T16:45:08.709Z,56.30
2018-04-23T16:47:34.963Z,56.70
2018-04-23T16:50:01.195Z,57.50
2018-04-23T16:52:27.418Z,57.80
2018-04-23T16:54:54.397Z,58.50
2018-04-23T16:57:20.653Z,58.50
2018-04-23T16:59:46.930Z,59.30
2018-04-23T17:02:13.188Z,59.80
2018-04-23T17:04:40.202Z,61.10
2018-04-23T17:07:06.460Z,61.00
2018-04-23T17:09:32.734Z,60.90
2018-04-23T17:11:59.689Z,60.50
2018-04-23T17:14:26.664Z,60.40
2018-04-23T17:16:52.967Z,60.40
2018-04-23T17:19:19.202Z,60.50
2018-04-23T17:21:45.444Z,60.70
2018-04-23T17:24:11.703Z,61.10
2018-04-23T17:26:38.062Z,61.50
2018-04-23T17:29:05.048Z,61.40
2018-04-23T17:31:31.285Z,61.40
2018-04-23T17:33:57.519Z,61.70
2018-04-23T17:36:23.749Z,62.30
2018-04-23T17:38:50.031Z,62.60
2018-04-23T17:41:16.289Z,62.90
2018-04-23T17:43:42.516Z,63.30
2018-04-23T17:46:08.804Z,63.70
2018-04-23T17:48:35.757Z,64.30
2018-04-23T17:51:02.751Z,64.30
2018-04-23T17:53:28.989Z,64.20
2018-04-23T17:55:55.243Z,64.20
2018-04-23T17:58:21.476Z,64.50
2018-04-23T18:00:47.736Z,64.80
2018-04-23T18:03:13.974Z,65.10
2018-04-23T18:05:40.203Z,65.40
2018-04-23T18:08:06.476Z,65.90
2018-04-23T18:10:32.713Z,66.90
2018-04-23T18:12:58.961Z,66.90
2018-04-23T18:15:26.130Z,66.60
2018-04-23T18:17:52.387Z,66.60
2018-04-23T18:20:19.386Z,67.20
2018-04-23T18:22:45.696Z,67.20
2018-04-23T18:25:12.741Z,67.90
2018-04-23T18:27:40.001Z,68.30
2018-04-23T18:30:06.761Z,68.30
2018-04-23T18:32:34.731Z,68.30
2018-04-23T18:35:01.192Z,68.80
2018-04-23T18:37:28.413Z,69.30
2018-04-23T18:39:55.633Z,69.20
2018-04-23T18:42:22.217Z,69.40
2018-04-23T18:44:49.045Z,69.70
2018-04-23T18:47:15.321Z,69.90
2018-04-23T18:49:41.629Z,69.90
2018-04-23T18:52:08.296Z,69.90
2018-04-23T18:54:35.058Z,69.90
2018-04-23T18:57:02.277Z,70.10
2018-04-23T18:59:28.994Z,70.30
2018-04-23T19:01:55.472Z,70.40
2018-04-23T19:04:22.519Z,71.20
2018-04-23T19:06:48.828Z,71.10
2018-04-23T19:11:43.527Z,71.50
2018-04-23T19:14:09.858Z,71.70
2018-04-23T19:16:36.185Z,72.70
2018-04-23T19:19:03.232Z,72.00
2018-04-23T19:21:30.458Z,71.90
2018-04-23T19:23:56.734Z,72.10
2018-04-23T19:26:23.049Z,72.20
2018-04-23T19:28:49.720Z,72.30
2018-04-23T19:31:16.040Z,72.20
2018-04-23T19:33:42.321Z,72.50
2018-04-23T19:36:09.380Z,72.50
2018-04-23T19:38:35.718Z,72.50
2018-04-23T19:41:03.430Z,72.50
2018-04-23T19:43:30.987Z,72.50
2018-04-23T19:45:57.494Z,72.70
2018-04-23T19:48:23.781Z,72.60
2018-04-23T19:50:51.187Z,72.60
2018-04-23T19:53:17.669Z,72.60
2018-04-23T19:55:44.009Z,72.60
2018-04-23T19:58:11.125Z,72.20
2018-04-23T20:00:37.775Z,72.90
2018-04-23T20:03:04.002Z,72.80
2018-04-23T20:05:30.900Z,72.10
2018-04-23T20:07:57.269Z,71.60
2018-04-23T20:10:23.501Z,71.10
2018-04-23T20:12:49.829Z,71.00
2018-04-23T20:15:16.077Z,70.90
2018-04-23T20:17:42.367Z,70.90
2018-04-23T20:20:08.609Z,71.10
2018-04-23T20:22:34.859Z,71.10
2018-04-23T20:25:02.220Z,71.10
2018-04-23T20:27:28.544Z,71.30
2018-04-23T20:29:55.749Z,71.60
2018-04-23T20:32:21.978Z,71.50
2018-04-23T20:34:48.278Z,71.60
2018-04-23T20:37:15.268Z,72.00
2018-04-23T20:39:43.923Z,72.60
2018-04-23T20:42:10.941Z,73.80
2018-04-23T20:44:37.171Z,73.20
2018-04-23T20:47:04.059Z,73.80
2018-04-23T20:49:34.573Z,74.20
2018-04-23T20:52:00.793Z,74.40
2018-04-23T20:54:27.917Z,74.80
2018-04-23T20:56:54.182Z,75.10
2018-04-23T20:59:21.151Z,75.70
2018-04-23T21:01:47.694Z,75.70
2018-04-23T21:04:14.106Z,76.00
2018-04-23T21:06:40.336Z,76.30
2018-04-23T21:09:07.770Z,76.60
2018-04-23T21:11:34.186Z,76.90
2018-04-23T21:14:01.199Z,77.60
2018-04-23T21:16:28.156Z,77.50
2018-04-23T21:18:54.630Z,77.80
2018-04-23T21:21:20.856Z,78.20
2018-04-23T21:23:47.092Z,78.60
2018-04-23T21:26:13.501Z,78.90
2018-04-23T21:28:39.716Z,79.30
2018-04-23T21:31:06.213Z,79.50
2018-04-23T21:33:32.680Z,79.80
2018-04-23T21:35:58.910Z,80.00
2018-04-23T21:38:25.158Z,80.30
2018-04-23T21:40:51.416Z,80.70
2018-04-23T21:43:18.180Z,80.70
2018-04-23T21:45:44.706Z,81.00
2018-04-23T21:48:10.974Z,81.00
2018-04-23T21:50:37.204Z,81.10
2018-04-23T21:53:04.202Z,81.60
2018-04-23T21:55:30.433Z,81.40
2018-04-23T21:57:56.650Z,81.60
2018-04-23T22:00:23.704Z,82.00
2018-04-23T22:02:50.672Z,82.40
2018-04-23T22:05:16.971Z,82.30
2018-04-23T22:07:43.145Z,82.60
2018-04-23T22:10:10.117Z,83.00
2018-04-23T22:12:36.594Z,83.00
2018-04-23T22:15:02.848Z,83.20
2018-04-23T22:17:29.090Z,83.20
2018-04-23T22:19:55.317Z,83.40
2018-04-23T22:22:21.518Z,83.40
2018-04-23T22:24:47.770Z,83.50
2018-04-23T22:27:13.996Z,83.60
2018-04-23T22:29:40.227Z,83.80
2018-04-23T22:32:07.352Z,84.30
2018-04-23T22:34:33.590Z,84.30
2018-04-23T22:36:59.821Z,84.50
2018-04-23T22:39:26.160Z,84.70
2018-04-23T22:41:52.390Z,84.80
2018-04-23T22:44:18.614Z,85.00
2018-04-23T22:46:44.850Z,85.40
2018-04-23T22:49:11.056Z,86.20
2018-04-23T22:51:37.273Z,87.10
2018-04-23T22:54:03.507Z,88.00
2018-04-23T22:56:29.717Z,89.20
2018-04-23T22:58:55.919Z,90.00
2018-04-23T23:01:22.161Z,90.50
2018-04-23T23:03:49.120Z,91.70
2018-04-23T23:06:16.077Z,91.90
2018-04-23T23:08:43.078Z,92.30
2018-04-23T23:11:09.310Z,92.20
2018-04-23T23:13:35.535Z,92.50
2018-04-23T23:16:01.761Z,92.80
2018-04-23T23:18:28.737Z,93.30
2018-04-23T23:20:55.717Z,93.40
2018-04-23T23:23:22.079Z,93.30
2018-04-23T23:25:48.311Z,93.50
2018-04-23T23:28:14.583Z,93.80
2018-04-23T23:30:40.881Z,93.90
2018-04-23T23:33:07.341Z,94.00
2018-04-23T23:35:33.578Z,94.40
2018-04-23T23:37:59.816Z,94.60
2018-04-23T23:40:26.807Z,95.20
2018-04-23T23:42:53.038Z,95.20
2018-04-23T23:45:19.397Z,95.30
2018-04-23T23:47:45.601Z,95.50
2018-04-23T23:50:11.873Z,95.90
2018-04-23T23:52:38.123Z,96.10
2018-04-23T23:55:04.353Z,96.20
2018-04-23T23:57:30.557Z,96.50
2018-04-23T23:59:56.848Z,96.80
